createdAt,value
2023-05-03T00:00:24.814Z,3.47
2023-05-03T00:05:32.924Z,2.50
2023-05-03T00:08:06.989Z,3.25
2023-05-03T00:10:40.298Z,2.70
2023-05-03T00:13:13.586Z,3.00
2023-05-03T00:15:46.781Z,2.78
2023-05-03T00:18:19.947Z,3.03
2023-05-03T00:20:54.659Z,2.83
2023-05-03T00:23:28.867Z,2.65
2023-05-03T00:26:02.053Z,3.05
2023-05-03T00:28:35.404Z,2.55
2023-05-03T00:31:09.939Z,3.05
2023-05-03T00:33:43.164Z,2.65
2023-05-03T00:36:17.752Z,2.55
2023-05-03T00:38:51.050Z,3.00
2023-05-03T00:41:24.840Z,2.35
2023-05-03T00:46:31.619Z,2.38
2023-05-03T00:49:04.973Z,3.28
2023-05-03T00:51:39.646Z,2.35
2023-05-03T00:54:13.399Z,2.30
2023-05-03T00:56:51.462Z,2.78
2023-05-03T00:59:26.478Z,2.70
2023-05-03T01:02:00.194Z,2.40
2023-05-03T01:04:34.407Z,3.53
2023-05-03T01:07:16.865Z,2.25
2023-05-03T01:10:00.692Z,2.63
2023-05-03T01:12:45.302Z,3.28
2023-05-03T01:15:25.486Z,2.63
2023-05-03T01:18:04.173Z,2.28
2023-05-03T01:20:38.572Z,2.75
2023-05-03T01:23:22.297Z,3.22
2023-05-03T01:25:57.090Z,2.47
2023-05-03T01:28:30.310Z,2.28
2023-05-03T01:31:03.734Z,2.20
2023-05-03T01:33:45.729Z,2.42
2023-05-03T01:36:27.976Z,2.47
2023-05-03T01:39:07.233Z,2.60
2023-05-03T01:41:44.601Z,2.55
2023-05-03T01:44:18.569Z,2.67
2023-05-03T01:46:53.437Z,2.58
2023-05-03T01:49:26.667Z,2.15
2023-05-03T01:52:01.661Z,2.42
2023-05-03T01:54:35.239Z,2.13
2023-05-03T01:57:09.978Z,2.53
2023-05-03T01:59:43.195Z,2.22
2023-05-03T02:02:16.348Z,2.72
2023-05-03T02:04:49.613Z,2.95
2023-05-03T02:07:22.816Z,2.65
2023-05-03T02:09:56.083Z,2.33
2023-05-03T02:12:30.603Z,2.95
2023-05-03T02:15:03.830Z,2.42
2023-05-03T02:17:37.531Z,2.00
2023-05-03T02:20:12.574Z,3.22
2023-05-03T02:22:45.969Z,2.83
2023-05-03T02:25:19.167Z,3.40
2023-05-03T02:27:53.733Z,2.83
2023-05-03T02:30:27.086Z,2.05
2023-05-03T02:33:00.574Z,2.33
2023-05-03T02:35:35.037Z,2.38
2023-05-03T02:38:08.597Z,4.43
2023-05-03T02:40:42.503Z,2.33
2023-05-03T02:43:17.357Z,2.13
2023-05-03T02:45:50.988Z,2.20
2023-05-03T02:50:57.709Z,2.88
2023-05-03T02:53:31.009Z,1.77
2023-05-03T02:56:08.405Z,2.72
2023-05-03T02:58:43.010Z,1.67
2023-05-03T03:01:16.695Z,2.28
2023-05-03T03:03:50.329Z,2.53
2023-05-03T03:06:23.870Z,3.13
2023-05-03T03:08:57.062Z,2.40
2023-05-03T03:11:30.522Z,2.28
2023-05-03T03:14:05.088Z,2.53
2023-05-03T03:16:38.625Z,2.35
2023-05-03T03:19:11.894Z,3.08
2023-05-03T03:21:45.462Z,1.60
2023-05-03T03:24:18.746Z,3.17
2023-05-03T03:26:53.312Z,1.95
2023-05-03T03:29:28.638Z,3.22
2023-05-03T03:32:02.126Z,2.03
2023-05-03T03:34:36.826Z,2.45
2023-05-03T03:37:10.130Z,2.72
2023-05-03T03:39:47.091Z,2.03
2023-05-03T03:44:56.691Z,2.17
2023-05-03T03:47:30.814Z,2.03
2023-05-03T03:50:04.431Z,2.17
2023-05-03T03:52:39.062Z,2.53
2023-05-03T03:55:12.708Z,2.50
2023-05-03T03:57:46.639Z,2.72
2023-05-03T04:00:21.521Z,3.22
2023-05-03T04:03:03.158Z,2.80
2023-05-03T04:05:37.919Z,2.13
2023-05-03T04:10:46.058Z,1.77
2023-05-03T04:13:19.593Z,2.30
2023-05-03T04:15:57.709Z,1.73
2023-05-03T04:18:32.099Z,2.13
2023-05-03T04:21:06.751Z,2.00
2023-05-03T04:23:40.444Z,2.13
2023-05-03T04:26:30.755Z,3.10
2023-05-03T04:29:11.638Z,3.63
2023-05-03T04:31:47.593Z,2.50
2023-05-03T04:34:22.513Z,3.22
2023-05-03T04:37:00.597Z,2.03
2023-05-03T04:39:34.346Z,3.55
2023-05-03T04:42:08.978Z,2.63
2023-05-03T04:44:43.077Z,2.28
2023-05-03T04:49:51.583Z,1.98
2023-05-03T04:52:24.791Z,2.90
2023-05-03T04:54:58.446Z,2.03
2023-05-03T04:57:32.353Z,1.95
2023-05-03T05:00:10.824Z,2.75
2023-05-03T05:02:47.900Z,2.03
2023-05-03T05:05:22.061Z,2.63
2023-05-03T05:07:55.255Z,2.00
2023-05-03T05:10:28.521Z,2.20
2023-05-03T05:13:02.927Z,3.60
2023-05-03T05:15:36.211Z,2.40
2023-05-03T05:18:11.112Z,1.98
2023-05-03T05:20:45.789Z,3.90
2023-05-03T05:23:19.176Z,2.88
2023-05-03T05:25:54.193Z,3.05
2023-05-03T05:28:28.251Z,1.60
2023-05-03T05:31:01.934Z,2.03
2023-05-03T05:33:38.119Z,2.40
2023-05-03T05:36:11.704Z,1.92
2023-05-03T05:41:18.587Z,1.70
2023-05-03T05:43:52.208Z,2.17
2023-05-03T05:46:26.065Z,2.92
2023-05-03T05:49:02.292Z,2.50
2023-05-03T05:51:35.604Z,2.60
2023-05-03T05:54:09.036Z,1.88
2023-05-03T05:56:42.546Z,1.90
2023-05-03T05:59:16.253Z,2.13
2023-05-03T06:01:49.502Z,3.00
2023-05-03T06:04:27.002Z,2.60
2023-05-03T06:07:00.484Z,1.95
2023-05-03T06:09:33.706Z,2.90
2023-05-03T06:12:10.499Z,1.60
2023-05-03T06:15:01.480Z,1.90
2023-05-03T06:17:38.919Z,1.80
2023-05-03T06:22:48.660Z,1.80
2023-05-03T06:25:22.415Z,2.17
2023-05-03T06:27:57.171Z,2.83
2023-05-03T06:30:35.279Z,2.75
2023-05-03T06:33:15.067Z,1.67
2023-05-03T06:35:51.414Z,2.40
2023-05-03T06:38:25.520Z,1.50
2023-05-03T06:40:58.884Z,3.58
2023-05-03T06:43:32.328Z,1.92
2023-05-03T06:46:10.221Z,1.80
2023-05-03T06:48:43.495Z,2.42
2023-05-03T06:51:18.143Z,1.90
2023-05-03T06:53:51.351Z,1.67
2023-05-03T06:56:24.860Z,1.63
2023-05-03T06:58:58.099Z,1.80
2023-05-03T07:01:32.125Z,1.80
2023-05-03T07:04:05.821Z,2.47
2023-05-03T07:06:54.756Z,1.50
2023-05-03T07:09:41.977Z,1.73
2023-05-03T07:12:16.794Z,2.22
2023-05-03T07:14:49.979Z,2.50
2023-05-03T07:17:23.187Z,2.67
2023-05-03T07:19:56.732Z,2.25
2023-05-03T07:22:31.356Z,1.60
2023-05-03T07:25:04.911Z,2.00
2023-05-03T07:27:38.233Z,1.83
2023-05-03T07:30:11.989Z,2.08
2023-05-03T07:35:19.436Z,1.98
2023-05-03T07:37:54.206Z,1.48
2023-05-03T07:40:28.790Z,2.15
2023-05-03T07:43:02.102Z,1.52
2023-05-03T07:45:35.328Z,1.75
2023-05-03T07:48:08.581Z,1.48
2023-05-03T07:50:43.874Z,2.10
2023-05-03T07:53:18.504Z,1.50
2023-05-03T07:55:55.524Z,2.08
2023-05-03T07:58:39.536Z,1.95
2023-05-03T08:01:13.992Z,5.00
2023-05-03T08:03:50.542Z,1.48
2023-05-03T08:06:24.157Z,1.83
2023-05-03T08:08:58.853Z,2.15
2023-05-03T08:11:32.183Z,1.60
2023-05-03T08:14:05.576Z,2.50
2023-05-03T08:16:38.975Z,1.85
2023-05-03T08:19:12.226Z,1.35
2023-05-03T08:21:46.875Z,1.85
2023-05-03T08:24:21.838Z,1.40
2023-05-03T08:26:55.381Z,1.60
2023-05-03T08:29:28.575Z,1.23
2023-05-03T08:32:02.556Z,1.80
2023-05-03T08:34:36.416Z,1.60
2023-05-03T08:37:09.650Z,1.75
2023-05-03T08:39:44.269Z,1.60
2023-05-03T08:42:17.523Z,2.08
2023-05-03T08:44:51.005Z,1.98
2023-05-03T08:47:24.271Z,1.73
2023-05-03T08:49:59.255Z,1.73
2023-05-03T08:52:33.132Z,1.33
2023-05-03T08:55:09.425Z,1.75
2023-05-03T08:57:42.930Z,1.50
2023-05-03T09:00:19.546Z,2.53
2023-05-03T09:02:53.137Z,1.35
2023-05-03T09:08:08.255Z,1.50
2023-05-03T09:10:43.875Z,1.55
2023-05-03T09:13:17.068Z,1.45
2023-05-03T09:15:54.854Z,1.50
2023-05-03T09:18:28.080Z,1.33
2023-05-03T09:21:01.437Z,1.20
2023-05-03T09:23:34.802Z,2.13
2023-05-03T09:26:09.380Z,2.28
2023-05-03T09:28:43.606Z,1.90
2023-05-03T09:31:16.846Z,1.60
2023-05-03T09:33:50.146Z,1.52
2023-05-03T09:36:23.754Z,1.83
2023-05-03T09:38:57.007Z,1.60
2023-05-03T09:41:32.715Z,1.48
2023-05-03T09:44:06.661Z,1.50
2023-05-03T09:49:15.164Z,1.40
2023-05-03T09:51:50.372Z,1.30
2023-05-03T09:54:25.690Z,1.48
2023-05-03T09:57:02.466Z,1.50
2023-05-03T09:59:37.019Z,1.50
2023-05-03T10:02:10.325Z,2.15
2023-05-03T10:04:49.072Z,1.45
2023-05-03T10:07:24.201Z,1.40
2023-05-03T10:10:00.683Z,1.42
2023-05-03T10:12:36.405Z,1.40
2023-05-03T10:15:11.980Z,1.95
2023-05-03T10:17:48.203Z,1.40
2023-05-03T10:20:28.503Z,1.42
2023-05-03T10:23:19.427Z,2.00
2023-05-03T10:26:14.728Z,1.67
2023-05-03T10:28:49.984Z,1.50
2023-05-03T10:31:47.509Z,1.35
2023-05-03T10:34:22.223Z,1.50
2023-05-03T10:36:55.478Z,1.45
2023-05-03T10:39:29.766Z,1.60
2023-05-03T10:42:04.867Z,1.67
2023-05-03T10:44:42.356Z,3.60
2023-05-03T10:47:17.089Z,1.50
2023-05-03T10:50:30.553Z,1.48
2023-05-03T10:53:03.753Z,1.85
2023-05-03T10:55:37.066Z,1.40
2023-05-03T10:58:14.443Z,2.67
2023-05-03T11:00:51.500Z,1.95
2023-05-03T11:03:38.106Z,2.78
2023-05-03T11:06:11.556Z,1.50
2023-05-03T11:08:49.726Z,1.77
2023-05-03T11:11:23.126Z,2.78
2023-05-03T11:13:56.567Z,1.33
2023-05-03T11:16:31.742Z,1.80
2023-05-03T11:19:05.110Z,1.40
2023-05-03T11:21:38.390Z,1.30
2023-05-03T11:24:11.598Z,1.17
2023-05-03T11:26:44.794Z,1.30
2023-05-03T11:29:18.766Z,1.15
2023-05-03T11:31:53.774Z,1.80
2023-05-03T11:34:26.989Z,1.20
2023-05-03T11:37:00.648Z,1.20
2023-05-03T11:39:34.121Z,1.05
2023-05-03T11:42:07.555Z,1.05
2023-05-03T11:44:40.869Z,1.20
2023-05-03T11:47:15.656Z,1.30
2023-05-03T11:49:53.549Z,1.77
2023-05-03T11:52:28.525Z,1.45
2023-05-03T11:55:02.828Z,1.52
2023-05-03T11:57:38.209Z,1.50
2023-05-03T12:00:14.484Z,1.80
2023-05-03T12:02:50.788Z,1.60
2023-05-03T12:05:24.878Z,1.20
2023-05-03T12:07:59.061Z,1.42
2023-05-03T12:10:34.671Z,1.20
2023-05-03T12:13:09.636Z,1.58
2023-05-03T12:15:50.436Z,1.50
2023-05-03T12:18:47.837Z,1.15
2023-05-03T12:24:01.589Z,1.10
2023-05-03T12:26:35.792Z,1.67
2023-05-03T12:31:49.118Z,2.28
2023-05-03T12:37:04.869Z,1.35
2023-05-03T12:39:40.374Z,1.35
2023-05-03T12:42:15.126Z,1.17
2023-05-03T12:44:48.556Z,1.30
2023-05-03T12:47:28.374Z,1.45
2023-05-03T12:50:06.319Z,1.20
2023-05-03T12:52:40.177Z,1.20
2023-05-03T12:55:18.168Z,1.00
2023-05-03T12:58:10.410Z,1.02
2023-05-03T13:01:15.789Z,1.35
2023-05-03T13:03:44.389Z,1.55
2023-05-03T13:06:19.783Z,1.25
2023-05-03T13:08:53.898Z,1.42
2023-05-03T13:11:27.260Z,1.38
2023-05-03T13:14:02.169Z,1.35
2023-05-03T13:16:38.374Z,1.08
2023-05-03T13:19:11.873Z,1.42
2023-05-03T13:21:48.369Z,1.35
2023-05-03T13:24:21.589Z,1.17
2023-05-03T13:26:54.775Z,1.10
2023-05-03T13:29:28.276Z,1.10
2023-05-03T13:32:01.723Z,1.38
2023-05-03T13:34:35.098Z,1.58
2023-05-03T13:37:09.651Z,1.50
2023-05-03T13:39:42.868Z,1.98
2023-05-03T13:42:16.335Z,1.33
2023-05-03T13:44:49.506Z,1.35
2023-05-03T13:47:23.251Z,1.77
2023-05-03T13:52:31.208Z,1.70
2023-05-03T13:55:04.578Z,1.45
2023-05-03T13:57:37.890Z,1.38
2023-05-03T14:00:12.321Z,1.25
2023-05-03T14:02:45.603Z,1.13
2023-05-03T14:05:19.739Z,1.05
2023-05-03T14:07:54.479Z,1.17
2023-05-03T14:10:27.658Z,1.70
2023-05-03T14:13:01.161Z,1.63
2023-05-03T14:15:39.022Z,1.40
2023-05-03T14:18:12.410Z,1.60
2023-05-03T14:20:45.626Z,0.98
2023-05-03T14:23:20.198Z,1.25
2023-05-03T14:25:53.536Z,1.40
2023-05-03T14:28:26.749Z,1.00
2023-05-03T14:31:00.310Z,2.78
2023-05-03T14:33:33.684Z,1.52
2023-05-03T14:36:09.212Z,1.30
2023-05-03T14:38:43.781Z,1.23
2023-05-03T14:41:17.065Z,1.23
2023-05-03T14:43:50.289Z,1.40
2023-05-03T14:46:23.528Z,2.35
2023-05-03T14:48:58.126Z,1.13
2023-05-03T14:51:33.534Z,1.70
2023-05-03T14:54:08.750Z,1.20
2023-05-03T14:56:42.020Z,1.40
2023-05-03T14:59:15.258Z,1.30
2023-05-03T15:01:48.706Z,1.20
2023-05-03T15:04:23.630Z,0.93
2023-05-03T15:07:00.518Z,1.60
2023-05-03T15:09:35.213Z,0.90
2023-05-03T15:12:08.693Z,1.77
2023-05-03T15:14:42.431Z,1.42
2023-05-03T15:19:49.128Z,1.58
2023-05-03T15:22:22.313Z,1.20
2023-05-03T15:24:56.834Z,1.70
2023-05-03T15:27:30.257Z,1.58
2023-05-03T15:30:04.372Z,1.35
2023-05-03T15:32:37.859Z,1.40
2023-05-03T15:35:11.952Z,1.00
2023-05-03T15:37:45.188Z,1.42
2023-05-03T15:40:22.346Z,1.08
2023-05-03T15:42:57.124Z,1.30
2023-05-03T15:45:30.432Z,1.42
2023-05-03T15:48:04.591Z,1.30
2023-05-03T15:50:38.161Z,1.80
2023-05-03T15:53:11.395Z,1.25
2023-05-03T15:55:47.174Z,1.20
2023-05-03T15:58:20.395Z,1.33
2023-05-03T16:00:55.527Z,1.73
2023-05-03T16:03:29.713Z,1.23
2023-05-03T16:06:03.030Z,1.35
2023-05-03T16:08:36.853Z,1.48
2023-05-03T16:11:12.734Z,1.42
2023-05-03T16:13:45.957Z,1.70
2023-05-03T16:16:19.318Z,1.70
2023-05-03T16:18:52.714Z,1.30
2023-05-03T16:21:26.615Z,1.30
2023-05-03T16:24:00.316Z,1.13
2023-05-03T16:26:34.922Z,1.35
2023-05-03T16:29:08.395Z,1.30
2023-05-03T16:31:41.672Z,1.95
2023-05-03T16:34:14.894Z,1.17
2023-05-03T16:36:48.098Z,1.30
2023-05-03T16:39:21.486Z,0.90
2023-05-03T16:41:56.090Z,1.02
2023-05-03T16:44:29.293Z,1.58
2023-05-03T16:47:02.473Z,1.63
2023-05-03T16:49:35.806Z,1.17
2023-05-03T16:52:09.968Z,1.10
2023-05-03T16:54:43.780Z,1.35
2023-05-03T16:57:18.736Z,1.08
2023-05-03T16:59:52.555Z,1.30
2023-05-03T17:05:00.447Z,0.95
2023-05-03T17:07:34.000Z,1.40
2023-05-03T17:10:08.557Z,1.00
2023-05-03T17:12:43.229Z,1.10
2023-05-03T17:15:16.878Z,1.30
2023-05-03T17:17:52.031Z,1.00
2023-05-03T17:20:25.272Z,1.40
2023-05-03T17:22:58.552Z,1.30
2023-05-03T17:25:31.887Z,1.17
2023-05-03T17:28:06.577Z,0.85
2023-05-03T17:30:39.923Z,1.30
2023-05-03T17:33:13.235Z,1.10
2023-05-03T17:35:46.475Z,1.33
2023-05-03T17:38:19.740Z,1.00
2023-05-03T17:40:53.011Z,0.90
2023-05-03T17:43:27.818Z,1.48
2023-05-03T17:46:08.642Z,1.00
2023-05-03T17:48:43.565Z,1.02
2023-05-03T17:51:16.801Z,0.98
2023-05-03T17:53:50.226Z,1.42
2023-05-03T17:56:24.718Z,1.23
2023-05-03T17:58:59.303Z,1.50
2023-05-03T18:01:32.516Z,1.63
2023-05-03T18:04:05.937Z,1.10
2023-05-03T18:06:39.284Z,1.20
2023-05-03T18:09:13.243Z,1.30
2023-05-03T18:14:20.981Z,1.48
2023-05-03T18:16:55.165Z,1.65
2023-05-03T18:19:29.227Z,1.30
2023-05-03T18:24:35.421Z,1.60
2023-05-03T18:27:09.189Z,1.35
2023-05-03T18:29:43.859Z,1.75
2023-05-03T18:32:17.209Z,1.23
2023-05-03T18:34:50.439Z,1.35
2023-05-03T18:37:24.866Z,1.58
2023-05-03T18:39:58.169Z,1.95
2023-05-03T18:42:31.971Z,1.20
2023-05-03T18:47:40.588Z,2.13
2023-05-03T18:50:14.098Z,1.55
2023-05-03T18:55:21.586Z,1.40
2023-05-03T18:57:54.818Z,1.48
2023-05-03T19:00:29.757Z,1.40
2023-05-03T19:03:02.971Z,1.40
2023-05-03T19:05:36.253Z,1.70
2023-05-03T19:08:10.531Z,1.40
2023-05-03T19:10:44.451Z,1.20
2023-05-03T19:13:18.053Z,1.33
2023-05-03T19:15:52.732Z,1.48
2023-05-03T19:18:28.308Z,1.42
2023-05-03T19:21:01.553Z,1.52
2023-05-03T19:23:34.935Z,1.60
2023-05-03T19:26:08.181Z,1.05
2023-05-03T19:28:41.456Z,1.27
2023-05-03T19:31:17.105Z,1.27
2023-05-03T19:33:50.430Z,1.77
2023-05-03T19:36:23.650Z,2.05
2023-05-03T19:38:56.909Z,1.58
2023-05-03T19:41:30.135Z,1.60
2023-05-03T19:44:03.357Z,1.48
2023-05-03T19:46:39.260Z,1.48
2023-05-03T19:49:13.000Z,1.60
2023-05-03T19:51:46.225Z,1.65
2023-05-03T19:54:19.600Z,1.52
2023-05-03T19:56:53.537Z,1.90
2023-05-03T19:59:29.182Z,1.67
2023-05-03T20:02:04.048Z,1.55
2023-05-03T20:04:37.597Z,1.35
2023-05-03T20:07:10.995Z,1.38
2023-05-03T20:09:44.193Z,2.10
2023-05-03T20:12:17.599Z,1.88
2023-05-03T20:14:50.789Z,1.45
2023-05-03T20:17:25.423Z,2.33
2023-05-03T20:20:07.110Z,1.52
2023-05-03T20:22:40.712Z,2.33
2023-05-03T20:25:13.909Z,2.10
2023-05-03T20:27:47.097Z,4.30
2023-05-03T20:30:20.587Z,2.20
2023-05-03T20:32:55.283Z,3.22
2023-05-03T20:35:28.537Z,1.90
2023-05-03T20:38:01.797Z,1.33
2023-05-03T20:40:35.723Z,2.90
2023-05-03T20:43:09.096Z,3.25
2023-05-03T20:45:42.321Z,3.00
2023-05-03T20:48:17.020Z,1.98
2023-05-03T20:50:50.962Z,2.88
2023-05-03T20:55:58.727Z,2.95
2023-05-03T20:58:32.034Z,4.28
2023-05-03T21:01:06.528Z,3.00
2023-05-03T21:03:41.254Z,2.90
2023-05-03T21:06:14.418Z,4.28
2023-05-03T21:08:48.542Z,3.05
2023-05-03T21:11:21.797Z,5.53
2023-05-03T21:13:55.121Z,4.63
2023-05-03T21:16:28.485Z,3.95
2023-05-03T21:19:03.865Z,6.43
2023-05-03T21:21:37.139Z,4.65
2023-05-03T21:24:10.406Z,6.18
2023-05-03T21:26:43.606Z,5.72
2023-05-03T21:29:17.373Z,3.30
2023-05-03T21:31:50.726Z,4.25
2023-05-03T21:34:25.442Z,4.65
2023-05-03T21:36:58.682Z,6.55
2023-05-03T21:39:32.829Z,6.55
2023-05-03T21:42:06.598Z,6.10
2023-05-03T21:44:39.831Z,8.70
2023-05-03T21:47:13.277Z,8.02
2023-05-03T21:49:47.863Z,7.13
2023-05-03T21:52:21.359Z,7.32
2023-05-03T21:54:54.668Z,8.50
2023-05-03T21:57:28.086Z,8.07
2023-05-03T22:00:01.550Z,5.47
2023-05-03T22:02:35.566Z,7.53
2023-05-03T22:05:10.940Z,7.88
2023-05-03T22:07:44.184Z,8.30
2023-05-03T22:10:17.625Z,7.38
2023-05-03T22:12:50.980Z,7.28
2023-05-03T22:15:24.490Z,10.38
2023-05-03T22:17:58.208Z,7.82
2023-05-03T22:20:32.813Z,7.18
2023-05-03T22:23:06.054Z,9.32
2023-05-03T22:25:39.332Z,8.75
2023-05-03T22:28:12.865Z,10.30
2023-05-03T22:30:46.750Z,10.70
2023-05-03T22:33:19.989Z,14.70
2023-05-03T22:35:54.913Z,12.15
2023-05-03T22:38:28.126Z,11.38
2023-05-03T22:41:01.557Z,10.65
2023-05-03T22:43:34.885Z,9.90
2023-05-03T22:46:08.220Z,9.45
2023-05-03T22:48:41.517Z,11.13
2023-05-03T22:51:16.096Z,11.07
2023-05-03T22:53:49.279Z,9.52
2023-05-03T22:56:22.717Z,10.50
2023-05-03T22:58:55.933Z,10.80
2023-05-03T23:01:29.313Z,9.90
2023-05-03T23:04:02.858Z,10.07
2023-05-03T23:06:37.477Z,11.95
2023-05-03T23:09:10.923Z,14.38
2023-05-03T23:11:44.347Z,13.60
2023-05-03T23:14:17.601Z,13.02
2023-05-03T23:16:50.890Z,14.10
2023-05-03T23:19:24.284Z,13.95
2023-05-03T23:21:58.941Z,14.18
2023-05-03T23:24:32.142Z,13.73
2023-05-03T23:27:05.459Z,14.60
2023-05-03T23:29:39.062Z,16.92
2023-05-03T23:32:12.755Z,13.25
2023-05-03T23:34:46.309Z,13.80
2023-05-03T23:37:20.877Z,14.88
2023-05-03T23:39:54.387Z,12.30
2023-05-03T23:42:28.098Z,15.68
2023-05-03T23:45:01.356Z,12.38
2023-05-03T23:47:34.647Z,15.38
2023-05-03T23:50:08.987Z,16.95
2023-05-03T23:52:44.208Z,15.73
2023-05-03T23:55:17.412Z,15.05
2023-05-03T23:57:50.612Z,18.17
